Time;durP1;ratioP1;P1;durP2;ratioP2;P2;SDS_P1;SDS_P2;PMS_P1;PMS_P2;Temp;Humidity;BMP_temperature;BMP_pressure;BME280_temperature;BME280_humidity;BME280_pressure;Samples;Min_cycle;Max_cycle;Signal;HPM_P1;HPM_P2
2021/08/25 00:00:40;;;;;;;1.13;0.77;;;;;;;22.44;55.47;102842.69;4957876;29;20443;-74
2021/08/25 00:03:06;;;;;;;1.08;0.63;;;;;;;22.40;55.42;102842.63;4957772;29;20055;-74
2021/08/25 00:05:31;;;;;;;1.10;0.90;;;;;;;22.43;55.55;102838.28;4924707;29;19941;-74
2021/08/25 00:07:57;;;;;;;1.60;0.90;;;;;;;22.43;55.56;102843.56;4957553;29;20110;-74
2021/08/25 00:10:22;;;;;;;1.03;0.90;;;;;;;22.43;55.54;102833.00;4940379;29;20038;-74
2021/08/25 00:12:47;;;;;;;1.23;0.95;;;;;;;22.38;55.61;102826.81;4957568;29;20077;-74
2021/08/25 00:15:13;;;;;;;1.33;0.93;;;;;;;22.40;55.58;102832.97;4957441;28;20030;-74
2021/08/25 00:17:38;;;;;;;0.90;0.60;;;;;;;22.44;55.62;102823.34;4957310;29;19926;-74
2021/08/25 00:20:05;;;;;;;1.15;0.70;;;;;;;22.41;55.64;102818.94;4957609;29;20031;-74
2021/08/25 00:22:30;;;;;;;1.60;1.20;;;;;;;22.38;55.40;102816.25;4957424;29;19910;-74
2021/08/25 00:24:56;;;;;;;1.27;0.93;;;;;;;22.41;55.71;102818.94;4957330;29;20437;-74
2021/08/25 00:27:21;;;;;;;1.33;1.00;;;;;;;22.40;55.57;102819.78;4940806;29;19914;-74
2021/08/25 00:29:46;;;;;;;1.37;1.10;;;;;;;22.41;55.44;102813.66;4942747;29;20062;-74
2021/08/25 00:32:12;;;;;;;0.75;0.60;;;;;;;22.40;55.61;102809.25;4941974;29;20035;-74
2021/08/25 00:34:37;;;;;;;1.73;0.82;;;;;;;22.38;55.60;102805.72;4924490;29;20054;-74
2021/08/25 00:37:03;;;;;;;1.45;0.77;;;;;;;22.38;55.56;102804.81;4942321;29;19964;-74
2021/08/25 00:39:28;;;;;;;1.00;0.70;;;;;;;22.33;55.55;102788.94;4959405;29;20082;-74
2021/08/25 00:41:53;;;;;;;1.35;0.80;;;;;;;22.41;55.51;102794.31;4940386;29;20035;-74
2021/08/25 00:44:19;;;;;;;0.70;0.57;;;;;;;22.34;55.83;102785.44;4939772;29;20122;-74
2021/08/25 00:46:45;;;;;;;0.93;0.60;;;;;;;22.40;55.58;102790.81;4939796;29;20147;-72
2021/08/25 00:49:13;;;;;;;0.82;0.70;;;;;;;22.40;55.35;102789.91;4939575;29;19953;-72
2021/08/25 00:51:39;;;;;;;1.45;0.80;;;;;;;22.32;55.54;102779.31;4956735;29;20023;-72
2021/08/25 00:54:04;;;;;;;1.20;0.90;;;;;;;22.35;55.47;102776.69;4923874;29;20107;-72
2021/08/25 00:56:31;;;;;;;1.05;0.70;;;;;;;22.40;55.59;102788.16;4956569;29;20273;-73
2021/08/25 00:58:56;;;;;;;0.95;0.85;;;;;;;22.37;55.69;102784.59;4939260;29;20284;-72
2021/08/25 01:02:17;;;;;;;1.17;0.70;;;;;;;22.34;55.55;102780.19;4956686;29;20023;-72
2021/08/25 01:04:52;;;;;;;1.23;0.80;;;;;;;22.37;55.55;102779.34;4898120;29;20039;-72
2021/08/25 01:07:21;;;;;;;1.50;0.65;;;;;;;22.38;55.52;102784.63;4956560;29;20027;-72
2021/08/25 01:09:46;;;;;;;1.27;0.80;;;;;;;22.39;55.55;102775.84;4939408;29;20062;-73
2021/08/25 01:12:12;;;;;;;0.73;0.60;;;;;;;22.38;55.58;102775.84;4923534;29;20035;-72
2021/08/25 01:14:39;;;;;;;0.98;0.77;;;;;;;22.38;55.39;102774.06;4939465;29;20390;-74
2021/08/25 01:17:06;;;;;;;1.13;0.85;;;;;;;22.37;55.59;102774.06;4939644;29;20038;-72
2021/08/25 01:19:47;;;;;;;1.17;0.68;;;;;;;22.38;55.85;102782.00;4956202;29;20082;-74
2021/08/25 01:22:16;;;;;;;0.80;0.52;;;;;;;22.37;55.53;102785.50;4956197;29;20038;-74
2021/08/25 01:24:43;;;;;;;0.90;0.60;;;;;;;22.35;55.44;102778.44;4956072;29;20102;-75
2021/08/25 01:27:10;;;;;;;1.13;0.90;;;;;;;22.36;55.47;102780.19;4938732;28;20497;-75
2021/08/25 01:29:37;;;;;;;0.70;0.50;;;;;;;22.33;55.48;102769.66;4955876;29;20058;-75
2021/08/25 01:32:02;;;;;;;3.60;1.55;;;;;;;22.39;55.48;102785.50;4956036;29;20054;-74
2021/08/25 01:34:28;;;;;;;1.33;1.00;;;;;;;22.34;55.57;102767.00;4922953;29;20030;-74
2021/08/25 01:36:54;;;;;;;1.60;0.60;;;;;;;22.36;55.48;102770.53;4955788;29;20510;-75
2021/08/25 01:39:20;;;;;;;2.20;0.93;;;;;;;22.36;55.55;102767.00;4955849;29;20035;-76
2021/08/25 01:41:48;;;;;;;1.15;0.70;;;;;;;22.34;55.54;102763.47;4938775;29;20386;-74
2021/08/25 01:44:14;;;;;;;0.80;0.70;;;;;;;22.36;55.58;102756.47;4955838;29;20031;-75
2021/08/25 01:46:41;;;;;;;1.38;1.25;;;;;;;22.35;55.52;102752.94;4955860;29;20031;-74
2021/08/25 01:49:08;;;;;;;2.20;0.90;;;;;;;22.36;55.60;102756.47;4922572;29;20035;-74
2021/08/25 01:51:35;;;;;;;0.73;0.63;;;;;;;22.33;55.55;102746.78;4955737;29;20059;-74
2021/08/25 01:54:01;;;;;;;0.70;0.60;;;;;;;22.32;55.63;102747.69;4955714;29;19918;-74
2021/08/25 01:56:26;;;;;;;0.95;0.60;;;;;;;22.36;55.62;102748.56;4938530;29;20114;-74
2021/08/25 01:58:53;;;;;;;0.60;0.40;;;;;;;22.37;55.55;102751.22;4938514;29;20401;-74
2021/08/25 02:01:18;;;;;;;0.90;0.63;;;;;;;22.30;55.55;102730.97;4922678;29;20125;-74
2021/08/25 02:03:44;;;;;;;0.90;0.75;;;;;;;22.35;55.96;102745.03;4955513;29;20035;-74
2021/08/25 02:06:09;;;;;;;1.27;0.80;;;;;;;22.35;55.69;102742.41;4955628;29;20039;-74
2021/08/25 02:08:34;;;;;;;1.75;1.42;;;;;;;22.35;55.66;102739.78;4938269;29;20030;-74
2021/08/25 02:11:00;;;;;;;1.88;1.20;;;;;;;22.34;55.45;102738.00;4955132;29;20039;-74
2021/08/25 02:13:26;;;;;;;0.82;0.60;;;;;;;22.29;55.81;102729.19;4922530;29;20108;-74
2021/08/25 02:15:51;;;;;;;1.42;1.00;;;;;;;22.34;55.57;102743.28;4955735;29;20114;-74
2021/08/25 02:18:17;;;;;;;1.10;0.60;;;;;;;22.35;55.55;102738.88;4955561;29;20042;-74
2021/08/25 02:20:45;;;;;;;1.45;1.00;;;;;;;22.33;55.58;102730.13;4922332;29;20035;-74
2021/08/25 02:23:11;;;;;;;1.08;0.70;;;;;;;22.35;55.57;102737.13;4955323;29;20466;-74
2021/08/25 02:25:36;;;;;;;1.63;1.02;;;;;;;22.29;55.59;102725.69;4955176;29;20087;-75
2021/08/25 02:28:02;;;;;;;0.90;0.50;;;;;;;22.34;55.57;102740.63;4906574;29;20485;-74
2021/08/25 02:30:27;;;;;;;1.08;0.75;;;;;;;22.30;55.64;102728.31;4955339;29;20510;-74
2021/08/25 02:32:52;;;;;;;1.70;0.82;;;;;;;22.29;55.74;102723.91;4938416;29;20030;-74
2021/08/25 02:35:18;;;;;;;0.82;0.57;;;;;;;22.34;55.52;102732.72;4938115;29;20024;-74
2021/08/25 02:37:43;;;;;;;1.15;0.60;;;;;;;22.29;55.61;102717.75;4955143;29;20052;-74
2021/08/25 02:40:10;;;;;;;0.80;0.60;;;;;;;22.34;55.63;102721.31;4958034;28;20442;-74
2021/08/25 02:42:36;;;;;;;2.53;1.00;;;;;;;22.34;55.59;102719.56;4941783;29;20042;-74
2021/08/25 02:45:03;;;;;;;1.23;0.90;;;;;;;22.30;55.51;102712.50;4958879;29;20027;-74
2021/08/25 02:47:29;;;;;;;1.17;0.90;;;;;;;22.33;55.44;102709.88;4958983;29;20117;-74
2021/08/25 02:49:54;;;;;;;0.82;0.65;;;;;;;22.31;55.57;102708.13;4941759;29;20540;-74
2021/08/25 02:52:19;;;;;;;1.60;1.25;;;;;;;22.30;55.42;102694.06;4925854;29;20027;-74
2021/08/25 02:54:45;;;;;;;1.60;1.00;;;;;;;22.31;55.97;102687.94;4941559;29;20114;-75
2021/08/25 02:57:11;;;;;;;1.10;0.88;;;;;;;22.30;55.54;102695.81;4925702;29;20122;-72
2021/08/25 02:59:36;;;;;;;1.35;0.80;;;;;;;22.33;55.69;102695.84;4941472;29;20038;-72
2021/08/25 03:02:02;;;;;;;1.45;1.10;;;;;;;22.31;55.51;102695.81;4941508;29;20027;-72
2021/08/25 03:04:27;;;;;;;1.27;0.88;;;;;;;22.33;55.48;102701.13;4941374;29;20027;-73
2021/08/25 03:06:52;;;;;;;0.70;0.70;;;;;;;22.29;55.64;102688.78;4958664;29;20031;-72
2021/08/25 03:09:18;;;;;;;1.38;0.60;;;;;;;22.29;55.58;102692.28;4941516;29;20035;-74
2021/08/25 03:11:43;;;;;;;1.38;1.10;;;;;;;22.32;55.54;102696.72;4941501;29;20035;-74
2021/08/25 03:14:09;;;;;;;0.63;0.57;;;;;;;22.30;55.69;102691.44;4958529;29;20466;-74
2021/08/25 03:16:34;;;;;;;0.75;0.70;;;;;;;22.31;55.51;102693.19;4958431;29;20074;-74
2021/08/25 03:18:59;;;;;;;1.23;0.70;;;;;;;22.31;55.46;102687.03;4958437;29;20513;-74
2021/08/25 03:21:25;;;;;;;1.08;0.73;;;;;;;22.27;55.55;102670.31;4958407;29;20027;-75
2021/08/25 03:23:50;;;;;;;0.70;0.60;;;;;;;22.26;55.54;102681.72;4925178;29;20129;-75
2021/08/25 03:26:15;;;;;;;1.48;0.88;;;;;;;22.31;55.62;102690.56;4909485;29;20031;-75
2021/08/25 03:28:41;;;;;;;0.77;0.60;;;;;;;22.26;55.71;102670.28;4925545;29;20478;-75
2021/08/25 03:31:06;;;;;;;0.82;0.55;;;;;;;22.27;55.74;102674.69;4958462;29;20430;-74
2021/08/25 03:33:31;;;;;;;2.08;1.00;;;;;;;22.31;55.64;102679.13;4924999;29;20042;-75
2021/08/25 03:35:57;;;;;;;0.90;0.80;;;;;;;22.30;55.58;102680.88;4925405;29;20032;-75
2021/08/25 03:38:22;;;;;;;0.70;0.60;;;;;;;22.30;55.32;102672.97;4958039;29;20130;-74
2021/08/25 03:40:48;;;;;;;1.88;1.05;;;;;;;22.30;55.52;102667.72;4925012;29;20031;-72
2021/08/25 03:43:13;;;;;;;1.08;0.68;;;;;;;22.27;55.61;102657.13;4941459;29;20038;-72
2021/08/25 03:45:39;;;;;;;0.90;0.70;;;;;;;22.27;55.57;102651.84;4926407;29;20505;-74
2021/08/25 03:48:04;;;;;;;1.23;0.80;;;;;;;22.30;55.59;102656.28;4958791;29;20031;-74
2021/08/25 03:50:29;;;;;;;0.93;0.80;;;;;;;22.28;55.58;102653.63;4924940;29;20039;-75
2021/08/25 03:52:55;;;;;;;0.75;0.57;;;;;;;22.28;55.56;102653.63;4943204;29;20027;-74
2021/08/25 03:55:20;;;;;;;0.88;0.70;;;;;;;22.25;55.62;102644.81;4958657;29;20031;-74
2021/08/25 03:57:45;;;;;;;2.15;0.80;;;;;;;22.30;55.52;102645.72;4924743;29;20035;-72
2021/08/25 04:00:11;;;;;;;1.30;0.80;;;;;;;22.28;55.55;102643.09;4940661;29;20470;-74
2021/08/25 04:02:37;;;;;;;1.00;0.75;;;;;;;22.25;55.89;102636.91;4908887;29;20065;-74
2021/08/25 04:05:02;;;;;;;1.58;0.93;;;;;;;22.27;55.87;102638.69;4940413;29;20027;-72
2021/08/25 04:07:27;;;;;;;1.20;0.82;;;;;;;22.27;55.65;102641.31;4957686;29;20035;-73
2021/08/25 04:09:53;;;;;;;1.27;0.88;;;;;;;22.27;55.42;102629.88;4957626;29;20031;-72
2021/08/25 04:12:18;;;;;;;1.15;0.70;;;;;;;22.27;55.67;102635.16;4924762;29;20035;-73
2021/08/25 04:14:44;;;;;;;1.10;0.80;;;;;;;22.26;55.60;102625.50;4940852;29;20086;-75
2021/08/25 04:17:09;;;;;;;1.30;1.00;;;;;;;22.23;55.62;102621.06;4957300;29;20438;-75
2021/08/25 04:19:34;;;;;;;1.08;0.70;;;;;;;22.20;55.60;102617.56;4957555;29;20041;-72
2021/08/25 04:22:00;;;;;;;0.77;0.75;;;;;;;22.28;55.64;102632.53;4940784;29;20063;-74
2021/08/25 04:24:26;;;;;;;1.23;0.93;;;;;;;22.27;55.61;102633.41;4957319;29;20039;-74
2021/08/25 04:26:52;;;;;;;1.15;0.90;;;;;;;22.28;55.60;102631.66;4953767;29;20022;-74
2021/08/25 04:29:18;;;;;;;1.55;0.95;;;;;;;22.27;55.65;102633.41;4939416;29;20489;-73
2021/08/25 04:31:43;;;;;;;1.83;1.02;;;;;;;22.26;55.70;102629.00;4957604;29;20451;-74
2021/08/25 04:34:08;;;;;;;1.95;0.90;;;;;;;22.27;55.61;102629.88;4957700;29;20102;-72
2021/08/25 04:36:34;;;;;;;1.02;0.80;;;;;;;22.24;55.80;102625.47;4957015;29;20142;-72
2021/08/25 04:38:59;;;;;;;1.35;0.85;;;;;;;22.21;55.65;102630.72;4924016;29;20041;-72
2021/08/25 04:41:25;;;;;;;1.30;0.80;;;;;;;22.27;55.61;102636.03;4939799;29;20390;-72
2021/08/25 04:43:50;;;;;;;1.20;0.82;;;;;;;22.27;56.00;102635.16;4923723;29;20070;-73
2021/08/25 04:46:17;;;;;;;1.20;0.70;;;;;;;22.26;55.54;102636.91;4939676;29;20031;-72
2021/08/25 04:48:42;;;;;;;1.10;0.73;;;;;;;22.21;55.65;102625.44;4957322;29;20032;-73
2021/08/25 04:51:10;;;;;;;1.20;0.85;;;;;;;22.26;55.67;102639.56;4923854;29;20046;-73
2021/08/25 04:53:35;;;;;;;1.27;1.00;;;;;;;22.27;55.59;102635.16;4956804;29;20031;-72
2021/08/25 04:56:01;;;;;;;1.13;0.73;;;;;;;22.26;55.56;102642.19;4939436;29;20450;-72
2021/08/25 04:58:26;;;;;;;1.58;1.00;;;;;;;22.24;55.51;102633.38;4957063;29;20074;-74
2021/08/25 05:00:51;;;;;;;0.60;0.60;;;;;;;22.27;55.47;102636.03;4939853;29;20500;-74
2021/08/25 05:03:17;;;;;;;1.02;0.70;;;;;;;22.26;55.54;102634.28;4938981;29;20031;-73
2021/08/25 05:05:42;;;;;;;0.95;0.80;;;;;;;22.26;55.55;102631.66;4939853;29;20470;-74
2021/08/25 05:08:08;;;;;;;1.05;0.82;;;;;;;22.25;55.56;102640.41;4923847;29;20063;-74
2021/08/25 05:10:33;;;;;;;1.52;0.70;;;;;;;22.26;55.66;102634.28;4939465;29;20060;-74
2021/08/25 05:12:58;;;;;;;0.90;0.60;;;;;;;22.25;55.25;102632.50;4923452;29;20028;-72
2021/08/25 05:15:26;;;;;;;3.72;1.77;;;;;;;22.26;55.40;102628.13;4939097;29;20028;-72
2021/08/25 05:17:52;;;;;;;1.50;0.95;;;;;;;22.26;55.46;102634.28;4923545;29;20031;-72
2021/08/25 05:20:17;;;;;;;1.10;0.80;;;;;;;22.27;55.54;102635.16;4939923;29;20031;-72
2021/08/25 05:22:43;;;;;;;1.13;0.90;;;;;;;22.22;55.54;102629.84;4956361;29;20063;-72
2021/08/25 05:25:09;;;;;;;1.08;0.80;;;;;;;22.27;55.56;102632.53;4923205;29;20031;-73
2021/08/25 05:27:34;;;;;;;1.13;0.63;;;;;;;22.25;55.71;102621.97;4956372;29;20039;-72
2021/08/25 05:29:59;;;;;;;1.02;0.75;;;;;;;22.28;55.46;102631.66;4956088;29;20082;-72
2021/08/25 05:32:25;;;;;;;1.10;0.60;;;;;;;22.25;55.63;102618.44;4956189;29;20106;-73
2021/08/25 05:34:50;;;;;;;1.30;0.90;;;;;;;22.27;55.44;102616.72;4955852;29;20363;-72
2021/08/25 05:37:15;;;;;;;1.00;0.88;;;;;;;22.27;55.79;102617.59;4955893;29;20050;-72
2021/08/25 05:39:41;;;;;;;1.60;0.90;;;;;;;22.25;55.63;102621.97;4922888;29;20438;-74
2021/08/25 05:42:06;;;;;;;1.88;1.20;;;;;;;22.26;55.40;102622.84;4938858;29;20486;-74
2021/08/25 05:44:32;;;;;;;1.02;0.70;;;;;;;22.30;55.79;102632.56;4955827;29;20070;-73
2021/08/25 05:46:57;;;;;;;0.98;0.70;;;;;;;22.28;55.54;102627.28;4938638;29;20067;-74
2021/08/25 05:49:23;;;;;;;1.45;0.93;;;;;;;22.25;55.42;102624.59;4955930;29;20027;-74
2021/08/25 05:51:49;;;;;;;1.35;1.00;;;;;;;22.29;55.72;102636.06;4955801;29;20023;-72
2021/08/25 05:54:14;;;;;;;1.33;0.80;;;;;;;22.30;55.40;102636.06;4938516;29;20121;-74
2021/08/25 05:56:40;;;;;;;0.88;0.70;;;;;;;22.29;55.35;102634.31;4955874;29;20078;-72
2021/08/25 05:59:06;;;;;;;1.10;0.80;;;;;;;22.32;55.53;102644.00;4938508;29;20031;-74
2021/08/25 06:01:32;;;;;;;1.75;0.80;;;;;;;22.30;55.31;102633.44;4938460;29;20027;-73
2021/08/25 06:03:57;;;;;;;1.30;1.00;;;;;;;22.28;55.48;102627.28;4955514;29;20493;-74
2021/08/25 06:06:36;;;;;;;1.17;0.88;;;;;;;22.33;55.44;102635.22;4955929;29;20074;-74
2021/08/25 06:09:04;;;;;;;1.55;1.10;;;;;;;22.29;55.38;102626.41;4955608;29;20054;-74
2021/08/25 06:11:29;;;;;;;1.88;0.80;;;;;;;22.31;55.44;102627.31;4955458;29;20023;-74
2021/08/25 06:13:55;;;;;;;2.08;0.75;;;;;;;22.33;55.31;102632.59;4938074;29;20027;-73
2021/08/25 06:16:20;;;;;;;1.25;0.80;;;;;;;22.36;55.33;102638.75;4938493;29;20489;-73
2021/08/25 06:18:45;;;;;;;1.52;1.00;;;;;;;22.33;55.37;102630.81;4955431;29;20035;-74
2021/08/25 06:21:20;;;;;;;1.08;0.80;;;;;;;22.40;55.29;102643.19;4938199;29;20375;-73
2021/08/25 06:23:46;;;;;;;1.20;0.73;;;;;;;22.43;55.14;102643.19;4938255;29;20027;-73
2021/08/25 06:26:11;;;;;;;2.17;1.10;;;;;;;22.48;55.22;102647.59;4938146;29;20470;-72
2021/08/25 06:28:37;;;;;;;1.17;0.93;;;;;;;22.50;55.14;102644.09;4938210;29;20061;-72
2021/08/25 06:31:03;;;;;;;1.10;0.65;;;;;;;22.47;55.11;102630.91;4922292;29;20035;-72
2021/08/25 06:33:28;;;;;;;1.25;0.90;;;;;;;22.52;55.11;102629.19;4922332;29;20386;-74
2021/08/25 06:35:53;;;;;;;1.30;1.00;;;;;;;22.57;54.95;102637.13;4938185;29;20035;-74
2021/08/25 06:38:19;;;;;;;1.63;1.00;;;;;;;22.59;54.90;102640.69;4955308;29;20114;-73
2021/08/25 06:40:44;;;;;;;1.25;0.88;;;;;;;22.61;54.88;102638.91;4922437;29;20027;-73
2021/08/25 06:43:09;;;;;;;1.08;0.82;;;;;;;22.61;54.95;102633.63;4938105;29;20122;-74
2021/08/25 06:45:35;;;;;;;1.25;0.88;;;;;;;22.59;54.93;102632.75;4938304;29;20050;-72
2021/08/25 06:48:00;;;;;;;1.30;0.98;;;;;;;22.61;54.89;102636.25;4938201;29;20110;-72
2021/08/25 06:50:25;;;;;;;0.95;0.80;;;;;;;22.60;54.87;102627.47;4955613;29;20039;-72
2021/08/25 06:52:52;;;;;;;0.85;0.55;;;;;;;22.63;55.16;102638.03;4922221;29;20032;-72
2021/08/25 06:55:17;;;;;;;1.15;0.73;;;;;;;22.62;55.05;102640.66;4955363;29;20046;-72
2021/08/25 06:57:42;;;;;;;1.30;0.77;;;;;;;22.65;55.08;102651.25;4938545;29;20489;-73
2021/08/25 07:00:08;;;;;;;1.90;1.00;;;;;;;22.68;54.89;102652.16;4955776;29;20125;-73
2021/08/25 07:02:33;;;;;;;0.90;0.70;;;;;;;22.70;54.82;102641.63;4955788;29;20042;-73
2021/08/25 07:04:59;;;;;;;1.33;0.90;;;;;;;22.75;54.88;102648.66;4922677;29;20038;-73
2021/08/25 07:07:24;;;;;;;1.45;1.10;;;;;;;22.73;54.92;102631.94;4956270;29;20045;-73
2021/08/25 07:09:49;;;;;;;1.17;0.80;;;;;;;22.75;54.90;102643.38;4940013;29;20034;-73
2021/08/25 07:12:15;;;;;;;1.60;0.77;;;;;;;22.77;55.11;102643.44;4939002;29;20037;-72
2021/08/25 07:14:40;;;;;;;1.02;0.82;;;;;;;22.70;54.79;102638.97;4955392;29;20059;-73
2021/08/25 07:17:09;;;;;;;1.00;0.80;;;;;;;22.72;55.08;102645.16;4940137;29;19946;-72
2021/08/25 07:19:34;;;;;;;0.75;0.60;;;;;;;22.71;54.94;102639.00;4940987;29;20357;-73
2021/08/25 07:21:59;;;;;;;2.05;0.95;;;;;;;22.56;55.01;102628.34;4927191;29;20125;-72
2021/08/25 07:24:25;;;;;;;0.98;0.80;;;;;;;22.73;55.04;102646.88;4957713;29;20477;-73
2021/08/25 07:26:50;;;;;;;1.02;0.60;;;;;;;22.71;55.00;102639.00;4942841;29;20062;-72
2021/08/25 07:29:21;;;;;;;1.20;0.70;;;;;;;22.80;54.96;102646.09;4944806;29;20035;-72
2021/08/25 07:31:49;;;;;;;1.00;0.90;;;;;;;22.83;54.91;102643.47;4914950;29;20035;-72
2021/08/25 07:34:20;;;;;;;1.67;0.93;;;;;;;22.76;54.81;102629.38;4930423;29;20435;-71
2021/08/25 07:36:57;;;;;;;1.05;0.70;;;;;;;22.71;54.91;102623.16;4960625;29;20130;-73
2021/08/25 07:39:22;;;;;;;0.85;0.75;;;;;;;22.85;54.82;102643.50;4944350;29;20031;-72
2021/08/25 07:41:47;;;;;;;1.23;0.80;;;;;;;22.87;54.81;102641.72;4961097;29;20106;-71
2021/08/25 07:44:13;;;;;;;1.45;1.02;;;;;;;22.83;54.55;102632.06;4928708;29;20042;-73
2021/08/25 07:46:39;;;;;;;1.20;0.90;;;;;;;22.82;54.88;102639.09;4944703;29;20473;-73
2021/08/25 07:49:08;;;;;;;1.90;1.25;;;;;;;22.78;54.74;102629.38;4945403;29;20054;-73
2021/08/25 07:51:37;;;;;;;0.88;0.77;;;;;;;22.78;54.68;102622.34;4944919;29;20019;-72
2021/08/25 07:54:03;;;;;;;1.63;1.10;;;;;;;22.81;54.99;102639.94;4961078;29;20027;-72
2021/08/25 07:56:32;;;;;;;1.60;1.30;;;;;;;22.74;55.15;102628.44;4962504;29;20046;-72
2021/08/25 07:58:58;;;;;;;1.40;1.15;;;;;;;22.77;54.98;102635.53;4963357;29;20031;-72
2021/08/25 08:01:26;;;;;;;1.25;0.73;;;;;;;22.71;55.10;102614.38;4946132;29;20031;-72
2021/08/25 08:04:11;;;;;;;1.45;0.95;;;;;;;22.77;55.11;102627.63;4945056;29;20478;-73
2021/08/25 08:06:37;;;;;;;1.35;0.88;;;;;;;22.80;55.13;102623.25;4941151;29;20038;-73
2021/08/25 08:09:02;;;;;;;1.30;0.80;;;;;;;22.86;55.01;102619.72;4957798;29;20023;-73
2021/08/25 08:11:28;;;;;;;1.08;0.73;;;;;;;22.84;54.83;102620.63;4957764;29;20090;-73
2021/08/25 08:13:54;;;;;;;1.23;1.13;;;;;;;22.80;55.04;102617.97;4957902;29;20027;-73
2021/08/25 08:16:21;;;;;;;1.10;0.80;;;;;;;22.76;55.25;102620.56;4957555;29;20386;-73
2021/08/25 08:19:03;;;;;;;1.00;0.70;;;;;;;22.70;55.09;102609.97;4940304;29;20063;-73
2021/08/25 08:21:30;;;;;;;1.27;0.87;;;;;;;22.82;54.94;102615.34;4942825;29;20030;-73
2021/08/25 08:23:57;;;;;;;1.48;0.98;;;;;;;22.86;55.00;102617.09;4941256;29;20078;-73
2021/08/25 08:26:25;;;;;;;1.05;0.80;;;;;;;22.87;54.83;102613.59;4951049;29;20033;-72
2021/08/25 08:28:51;;;;;;;1.42;1.08;;;;;;;22.87;54.64;102605.69;4964602;29;20123;-73
2021/08/25 08:31:16;;;;;;;1.23;0.93;;;;;;;22.94;54.72;102607.47;4958052;29;20035;-73
2021/08/25 08:33:44;;;;;;;1.23;0.70;;;;;;;22.88;54.67;102603.91;4958275;29;20087;-72
2021/08/25 08:36:09;;;;;;;1.30;0.85;;;;;;;22.72;55.08;102584.50;4926248;29;20509;-72
2021/08/25 08:38:38;;;;;;;0.90;0.60;;;;;;;22.64;55.02;102579.16;4942244;29;20031;-73
2021/08/25 08:41:03;;;;;;;2.28;0.95;;;;;;;22.62;54.85;102574.75;4911579;29;20386;-72
2021/08/25 08:43:32;;;;;;;1.52;0.88;;;;;;;22.68;55.23;102587.97;4941957;29;20121;-71
2021/08/25 08:46:05;;;;;;;1.25;0.75;;;;;;;22.78;55.14;102603.88;4959474;29;20500;-74
2021/08/25 08:48:40;;;;;;;2.92;0.98;;;;;;;22.52;55.15;102557.13;4927868;29;20127;-73
2021/08/25 08:51:08;;;;;;;1.77;0.75;;;;;;;22.63;55.01;102574.75;4960396;29;20082;-73
2021/08/25 08:53:34;;;;;;;0.82;0.65;;;;;;;22.61;55.34;102578.25;4944941;29;20039;-72
2021/08/25 08:55:59;;;;;;;0.95;0.70;;;;;;;22.72;55.05;102590.63;4943687;29;20031;-73
2021/08/25 08:58:25;;;;;;;1.33;0.70;;;;;;;22.72;55.17;102595.88;4927086;29;20031;-74
2021/08/25 09:00:59;;;;;;;2.03;1.25;;;;;;;22.73;55.19;102589.75;4960275;29;20043;-73
2021/08/25 09:03:26;;;;;;;1.52;0.80;;;;;;;22.63;55.19;102573.88;4941347;29;20027;-74
2021/08/25 09:05:57;;;;;;;1.83;0.90;;;;;;;22.67;55.24;102573.91;4956639;29;20054;-74
2021/08/25 09:08:28;;;;;;;1.05;0.77;;;;;;;22.68;55.08;102569.50;4939250;29;20437;-73
2021/08/25 09:11:00;;;;;;;0.95;0.73;;;;;;;22.71;55.31;102570.41;4939513;29;20371;-74
2021/08/25 09:13:34;;;;;;;1.10;0.80;;;;;;;22.72;55.10;102568.66;4956553;29;20034;-74
2021/08/25 09:15:59;;;;;;;1.70;1.10;;;;;;;22.67;55.08;102559.84;4956425;29;20022;-74
2021/08/25 09:18:24;;;;;;;0.93;0.82;;;;;;;22.72;55.12;102571.31;4923822;29;20038;-73
2021/08/25 09:20:50;;;;;;;1.23;0.98;;;;;;;22.67;55.03;102566.00;4939039;29;20111;-74
2021/08/25 09:23:18;;;;;;;1.92;1.00;;;;;;;22.73;54.97;102586.22;4939011;29;20054;-74
2021/08/25 09:25:46;;;;;;;1.40;0.90;;;;;;;22.75;54.99;102593.28;4956127;29;20038;-75
2021/08/25 09:28:14;;;;;;;1.02;0.75;;;;;;;22.77;55.27;102586.28;4938902;29;20042;-75
2021/08/25 09:31:02;;;;;;;1.33;0.95;;;;;;;22.72;55.00;102580.06;4956122;29;20034;-75
2021/08/25 09:33:39;;;;;;;1.92;1.50;;;;;;;22.76;54.90;102581.88;4956021;29;20445;-75
2021/08/25 09:36:10;;;;;;;0.93;0.70;;;;;;;22.71;54.92;102572.19;4955694;29;20023;-75
2021/08/25 09:38:37;;;;;;;1.50;0.90;;;;;;;22.74;54.89;102578.31;4938682;29;20059;-75
2021/08/25 09:41:08;;;;;;;1.17;0.80;;;;;;;22.71;54.87;102574.81;4939158;29;20042;-75
2021/08/25 09:43:45;;;;;;;0.90;0.63;;;;;;;22.70;55.17;102573.03;4956046;29;20131;-75
2021/08/25 09:46:21;;;;;;;1.17;0.70;;;;;;;22.72;54.88;102580.06;4938659;29;20086;-75
2021/08/25 09:48:50;;;;;;;1.23;0.90;;;;;;;22.69;55.08;102581.84;4955309;28;20426;-75
2021/08/25 09:51:21;;;;;;;1.20;0.95;;;;;;;22.70;55.15;102580.97;4955881;29;20030;-75
2021/08/25 09:53:49;;;;;;;0.73;0.70;;;;;;;22.68;54.94;102582.69;4955944;29;20031;-75
2021/08/25 09:56:35;;;;;;;1.00;0.70;;;;;;;22.71;55.00;102582.72;4955691;29;20537;-75
2021/08/25 09:59:02;;;;;;;1.30;0.98;;;;;;;22.67;54.84;102573.03;4938373;29;20127;-75
2021/08/25 10:01:28;;;;;;;1.30;1.08;;;;;;;22.75;54.82;102574.81;4955678;29;20024;-75
2021/08/25 10:03:54;;;;;;;1.10;1.00;;;;;;;22.76;54.78;102573.97;4938409;29;20038;-75
2021/08/25 10:06:22;;;;;;;0.90;0.70;;;;;;;22.77;54.75;102569.59;4955546;29;20038;-75
2021/08/25 10:08:48;;;;;;;1.75;0.98;;;;;;;22.74;54.71;102564.25;4955772;29;20023;-75
2021/08/25 10:11:14;;;;;;;1.90;1.40;;;;;;;22.70;54.75;102544.03;4955474;29;20463;-75
2021/08/25 10:13:41;;;;;;;1.40;1.10;;;;;;;22.73;54.61;102541.38;4939627;29;20058;-75
2021/08/25 10:16:13;;;;;;;1.40;1.00;;;;;;;22.76;54.70;102552.00;4956832;29;20023;-75
2021/08/25 10:18:41;;;;;;;1.60;1.15;;;;;;;22.79;54.57;102538.81;4938906;29;20381;-75
2021/08/25 10:21:36;;;;;;;1.70;0.98;;;;;;;22.79;54.76;102528.28;4956535;29;20030;-75
2021/08/25 10:24:05;;;;;;;1.05;0.75;;;;;;;22.77;54.57;102528.25;4939276;29;20035;-75
2021/08/25 10:26:51;;;;;;;1.30;0.90;;;;;;;22.78;54.50;102532.66;4956103;29;20023;-75
2021/08/25 10:29:16;;;;;;;1.20;0.90;;;;;;;22.78;54.69;102527.41;4955273;29;20032;-75
2021/08/25 10:31:48;;;;;;;1.38;0.93;;;;;;;22.79;54.62;102525.63;4938328;29;20042;-75
2021/08/25 10:34:15;;;;;;;1.25;0.90;;;;;;;22.70;54.63;102510.63;4938228;29;20074;-75
2021/08/25 10:36:41;;;;;;;1.40;0.98;;;;;;;22.78;54.49;102529.16;4906598;29;20490;-75
2021/08/25 10:39:31;;;;;;;1.35;1.00;;;;;;;22.79;54.65;102528.28;4938315;29;20035;-75
2021/08/25 10:41:57;;;;;;;0.70;0.70;;;;;;;22.79;54.47;102531.78;4955411;29;20106;-75
2021/08/25 10:44:41;;;;;;;2.40;1.00;;;;;;;22.77;54.42;102516.84;4955407;29;20027;-75
2021/08/25 10:47:09;;;;;;;1.27;0.85;;;;;;;22.78;54.59;102516.84;4955902;29;20377;-75
2021/08/25 10:49:38;;;;;;;1.85;1.30;;;;;;;22.72;54.61;102495.66;4937793;29;20039;-75
2021/08/25 10:52:15;;;;;;;1.63;0.90;;;;;;;22.79;54.31;102505.41;4955030;29;20492;-75
2021/08/25 10:54:40;;;;;;;1.30;0.95;;;;;;;22.79;54.39;102493.97;4938047;29;20027;-75
2021/08/25 10:57:08;;;;;;;1.58;1.13;;;;;;;22.78;54.69;102495.75;4955178;29;20086;-75
2021/08/25 10:59:33;;;;;;;1.58;1.02;;;;;;;22.78;54.48;102490.47;4938071;28;20035;-75
2021/08/25 11:01:59;;;;;;;1.45;0.90;;;;;;;22.79;54.41;102491.34;4958667;29;20429;-75
2021/08/25 11:04:25;;;;;;;1.65;1.00;;;;;;;22.78;54.24;102497.50;4941546;29;20031;-74
2021/08/25 11:06:52;;;;;;;1.77;0.80;;;;;;;22.78;54.61;102489.59;4941557;29;20035;-74
2021/08/25 11:09:32;;;;;;;1.52;0.93;;;;;;;22.77;54.37;102493.97;4941633;29;20441;-74
2021/08/25 11:12:24;;;;;;;1.65;1.10;;;;;;;22.77;54.33;102491.34;4958770;29;20035;-74
2021/08/25 11:14:52;;;;;;;1.10;0.90;;;;;;;22.78;54.27;102482.56;4954205;29;20031;-74
2021/08/25 11:17:29;;;;;;;1.63;1.23;;;;;;;22.76;54.27;102468.47;4941525;29;20023;-73
2021/08/25 11:19:57;;;;;;;1.30;0.80;;;;;;;22.70;54.33;102459.66;4958734;29;20489;-73
2021/08/25 11:22:27;;;;;;;1.15;0.88;;;;;;;22.78;54.38;102479.91;4941201;29;20031;-73
2021/08/25 11:25:05;;;;;;;1.48;1.00;;;;;;;22.72;54.29;102461.38;4941093;29;20054;-73